Time;durP1;ratioP1;P1;durP2;ratioP2;P2;SDS_P1;SDS_P2;PMS_P1;PMS_P2;Temp;Humidity;BMP_temperature;BMP_pressure;BME280_temperature;BME280_humidity;BME280_pressure;Samples;Min_cycle;Max_cycle;Signal;HPM_P1;HPM_P2
2022/09/30 00:04:12;;;;;;;5.28;2.72;;;;;;;;;;10081705;28;20075;-67
2022/09/30 00:09:14;;;;;;;8.68;2.17;;;;;;;;;;10085493;28;20083;-67
2022/09/30 00:14:16;;;;;;;4.97;2.60;;;;;;;;;;10082892;28;20090;-67
2022/09/30 00:19:14;;;;;;;9.35;2.28;;;;;;;;;;10079734;28;20066;-67
2022/09/30 00:24:14;;;;;;;7.53;2.35;;;;;;;;;;10084811;28;20215;-67
2022/09/30 00:29:12;;;;;;;3.38;2.08;;;;;;;;;;10079104;28;20169;-66
2022/09/30 00:34:11;;;;;;;9.13;2.40;;;;;;;;;;10074720;28;20461;-66
2022/09/30 00:39:12;;;;;;;4.80;2.15;;;;;;;;;;10086417;28;20066;-66
2022/09/30 00:44:32;;;;;;;5.25;2.10;;;;;;;;;;10078554;28;20082;-67
2022/09/30 00:49:31;;;;;;;9.82;2.63;;;;;;;;;;10076584;28;20502;-67
2022/09/30 00:54:31;;;;;;;5.28;2.33;;;;;;;;;;10076158;28;20082;-67
2022/09/30 00:59:32;;;;;;;2.55;2.00;;;;;;;;;;10075839;28;20086;-67
2022/09/30 01:04:33;;;;;;;3.33;2.08;;;;;;;;;;10080460;28;20086;-67
2022/09/30 01:09:34;;;;;;;4.15;2.03;;;;;;;;;;10079863;28;20201;-66
2022/09/30 01:14:33;;;;;;;2.67;1.90;;;;;;;;;;10080534;28;20579;-67
2022/09/30 01:19:52;;;;;;;3.88;2.10;;;;;;;;;;10082365;28;20509;-67
2022/09/30 01:25:08;;;;;;;5.75;2.22;;;;;;;;;;10068241;28;20079;-66
2022/09/30 01:30:08;;;;;;;4.90;2.53;;;;;;;;;;10077111;28;20090;-67
2022/09/30 01:35:11;;;;;;;4.88;2.03;;;;;;;;;;10081985;28;20110;-66
2022/09/30 01:40:21;;;;;;;3.15;2.00;;;;;;;;;;10077839;28;20075;-66
2022/09/30 01:45:23;;;;;;;3.45;2.40;;;;;;;;;;10079956;28;20081;-66
2022/09/30 01:50:25;;;;;;;4.45;2.60;;;;;;;;;;10082759;28;20074;-66
2022/09/30 01:55:27;;;;;;;4.25;2.35;;;;;;;;;;10081501;28;20074;-66
2022/09/30 02:00:28;;;;;;;7.43;3.70;;;;;;;;;;10062818;28;20090;-67
2022/09/30 02:05:30;;;;;;;5.53;2.40;;;;;;;;;;10081226;28;20070;-67
2022/09/30 02:10:30;;;;;;;5.07;2.50;;;;;;;;;;10080445;28;20085;-67
2022/09/30 02:15:34;;;;;;;5.03;2.30;;;;;;;;;;10078662;28;20089;-67
2022/09/30 02:20:41;;;;;;;5.90;2.70;;;;;;;;;;10079341;28;20075;-67
2022/09/30 02:25:41;;;;;;;2.97;1.92;;;;;;;;;;10074079;28;20086;-67
2022/09/30 02:30:42;;;;;;;4.15;2.50;;;;;;;;;;10073059;28;20445;-66
2022/09/30 02:35:45;;;;;;;5.25;2.53;;;;;;;;;;10076297;28;20094;-65
2022/09/30 02:40:46;;;;;;;6.93;2.40;;;;;;;;;;10078439;28;20079;-65
2022/09/30 02:45:49;;;;;;;3.75;2.63;;;;;;;;;;10088567;28;20082;-66
2022/09/30 02:50:51;;;;;;;8.48;3.53;;;;;;;;;;10082142;28;20521;-68
2022/09/30 02:56:13;;;;;;;4.43;2.17;;;;;;;;;;10087161;28;20425;-66
2022/09/30 03:01:13;;;;;;;7.75;2.40;;;;;;;;;;10089499;28;20067;-66
2022/09/30 03:06:13;;;;;;;3.92;2.25;;;;;;;;;;10078557;28;20048;-66
2022/09/30 03:11:14;;;;;;;8.63;2.25;;;;;;;;;;10079366;28;20078;-66
2022/09/30 03:16:16;;;;;;;2.22;1.85;;;;;;;;;;10081434;28;20423;-66
2022/09/30 03:21:24;;;;;;;5.50;2.33;;;;;;;;;;10074017;28;20571;-67
2022/09/30 03:26:27;;;;;;;6.05;2.63;;;;;;;;;;10095172;28;20497;-66
2022/09/30 03:31:30;;;;;;;5.95;2.22;;;;;;;;;;10082843;28;20546;-66
2022/09/30 03:36:34;;;;;;;2.45;2.10;;;;;;;;;;10092674;28;20055;-66
2022/09/30 03:41:35;;;;;;;4.30;2.30;;;;;;;;;;10078868;28;20153;-66
2022/09/30 03:46:35;;;;;;;3.40;2.25;;;;;;;;;;10077564;28;20086;-66
2022/09/30 03:51:36;;;;;;;4.63;1.73;;;;;;;;;;10079558;28;20147;-66
2022/09/30 03:56:34;;;;;;;6.03;2.00;;;;;;;;;;10080795;28;20079;-67
2022/09/30 04:01:32;;;;;;;8.40;2.70;;;;;;;;;;10078369;28;20071;-67
2022/09/30 04:06:31;;;;;;;26.27;20.10;;;;;;;;;;10077412;28;20071;-67
2022/09/30 04:11:30;;;;;;;5.07;3.88;;;;;;;;;;10075990;28;20489;-67
2022/09/30 04:16:29;;;;;;;12.50;10.20;;;;;;;;;;10079015;28;20078;-66
2022/09/30 04:21:27;;;;;;;3.97;2.13;;;;;;;;;;10074944;28;20465;-69
2022/09/30 04:26:26;;;;;;;6.10;3.75;;;;;;;;;;10079879;28;20087;-67
2022/09/30 04:31:25;;;;;;;16.15;14.50;;;;;;;;;;10079674;28;20074;-67
2022/09/30 04:36:24;;;;;;;64.32;53.30;;;;;;;;;;10077375;28;20089;-67
2022/09/30 04:41:22;;;;;;;12.35;6.68;;;;;;;;;;10078362;28;20067;-67
2022/09/30 04:46:21;;;;;;;10.65;5.35;;;;;;;;;;10064310;28;20079;-67
2022/09/30 04:51:21;;;;;;;8.07;3.17;;;;;;;;;;10080441;28;20078;-67
2022/09/30 04:56:19;;;;;;;7.68;3.40;;;;;;;;;;10080181;28;20156;-70
2022/09/30 05:01:18;;;;;;;3.97;3.13;;;;;;;;;;10061973;28;20544;-69
2022/09/30 05:06:16;;;;;;;8.30;4.75;;;;;;;;;;10091482;28;20079;-67
2022/09/30 05:11:17;;;;;;;23.77;8.48;;;;;;;;;;10093352;28;20078;-67
2022/09/30 05:16:16;;;;;;;22.48;8.25;;;;;;;;;;10087128;28;20423;-68
2022/09/30 05:21:15;;;;;;;20.58;9.95;;;;;;;;;;10090826;28;20077;-67
2022/09/30 05:26:14;;;;;;;22.35;8.13;;;;;;;;;;10089219;28;20530;-67
2022/09/30 05:31:13;;;;;;;8.40;3.92;;;;;;;;;;10070263;28;20513;-67
2022/09/30 05:36:13;;;;;;;5.55;2.58;;;;;;;;;;10092367;28;20070;-67
2022/09/30 05:41:12;;;;;;;8.45;3.13;;;;;;;;;;10092347;28;20089;-67
2022/09/30 05:46:10;;;;;;;11.23;6.00;;;;;;;;;;10087431;28;20085;-69
2022/09/30 05:51:11;;;;;;;13.48;7.13;;;;;;;;;;10076042;28;21025;-67
2022/09/30 05:56:10;;;;;;;19.02;7.95;;;;;;;;;;10077167;28;20834;-67
2022/09/30 06:01:09;;;;;;;20.75;7.82;;;;;;;;;;10075829;28;20505;-68
2022/09/30 06:06:12;;;;;;;24.63;6.70;;;;;;;;;;10079280;28;20075;-68
2022/09/30 06:11:12;;;;;;;22.92;6.80;;;;;;;;;;10072769;28;20086;-67
2022/09/30 06:16:11;;;;;;;20.38;5.47;;;;;;;;;;10076463;28;20087;-68
2022/09/30 06:21:14;;;;;;;16.33;5.57;;;;;;;;;;10075164;28;20532;-69
2022/09/30 06:26:13;;;;;;;28.73;10.98;;;;;;;;;;10074999;28;20051;-67
2022/09/30 06:31:11;;;;;;;32.35;8.68;;;;;;;;;;10079466;28;20110;-68
2022/09/30 06:36:10;;;;;;;17.00;6.35;;;;;;;;;;10091437;28;20074;-67
2022/09/30 06:41:09;;;;;;;35.85;6.03;;;;;;;;;;10078961;28;20082;-67
2022/09/30 06:46:08;;;;;;;15.93;5.07;;;;;;;;;;10073833;28;20086;-67
2022/09/30 06:51:17;;;;;;;19.25;5.95;;;;;;;;;;10073698;28;20077;-67
2022/09/30 06:56:17;;;;;;;13.85;3.13;;;;;;;;;;10078964;28;20472;-67
2022/09/30 07:01:15;;;;;;;12.90;4.35;;;;;;;;;;10078649;28;20606;-67
2022/09/30 07:06:14;;;;;;;7.68;3.67;;;;;;;;;;10077616;28;20070;-66
2022/09/30 07:11:17;;;;;;;9.23;5.05;;;;;;;;;;10079262;28;20087;-67
2022/09/30 07:16:16;;;;;;;11.02;3.17;;;;;;;;;;10072876;28;20070;-66
2022/09/30 07:21:15;;;;;;;7.55;3.70;;;;;;;;;;10080651;28;20071;-68
2022/09/30 07:26:14;;;;;;;9.98;3.33;;;;;;;;;;10078824;28;20533;-67
2022/09/30 07:31:15;;;;;;;5.35;3.55;;;;;;;;;;10086814;28;20082;-68
2022/09/30 07:36:34;;;;;;;14.23;5.22;;;;;;;;;;10087501;28;20086;-68
2022/09/30 07:41:34;;;;;;;15.45;4.43;;;;;;;;;;10080767;28;20083;-67
2022/09/30 07:46:37;;;;;;;14.02;3.40;;;;;;;;;;10084531;28;20082;-69
2022/09/30 07:51:37;;;;;;;14.07;4.93;;;;;;;;;;10086774;28;20083;-68
2022/09/30 07:56:37;;;;;;;13.77;5.00;;;;;;;;;;10080106;28;20070;-68
2022/09/30 08:01:57;;;;;;;18.70;4.25;;;;;;;;;;10078831;28;20094;-68
2022/09/30 08:06:57;;;;;;;14.75;3.90;;;;;;;;;;10079483;28;20342;-69
2022/09/30 08:11:55;;;;;;;19.70;5.88;;;;;;;;;;10079087;28;20094;-68
2022/09/30 08:16:54;;;;;;;20.38;4.07;;;;;;;;;;10079244;28;20067;-67
2022/09/30 08:21:54;;;;;;;17.85;6.50;;;;;;;;;;10083464;28;20089;-68
2022/09/30 08:26:52;;;;;;;15.63;4.63;;;;;;;;;;10078364;28;20078;-67
2022/09/30 08:31:51;;;;;;;15.25;4.45;;;;;;;;;;10085774;28;20078;-67
2022/09/30 08:36:49;;;;;;;13.55;5.30;;;;;;;;;;10085209;28;20086;-67
2022/09/30 08:42:05;;;;;;;9.95;3.80;;;;;;;;;;10081555;28;20078;-68
2022/09/30 08:47:32;;;;;;;4.95;2.45;;;;;;;;;;10073546;28;20101;-68
2022/09/30 08:52:33;;;;;;;6.07;2.30;;;;;;;;;;10084876;28;20090;-68
2022/09/30 08:57:47;;;;;;;2.90;2.40;;;;;;;;;;10078468;28;20963;-67
2022/09/30 09:02:48;;;;;;;6.28;2.90;;;;;;;;;;10080505;28;20089;-68
2022/09/30 09:07:49;;;;;;;22.10;14.60;;;;;;;;;;10083914;28;20421;-68
2022/09/30 09:12:55;;;;;;;12.40;5.78;;;;;;;;;;10075935;28;20086;-67
2022/09/30 09:18:10;;;;;;;8.88;3.35;;;;;;;;;;10076698;28;20094;-67
2022/09/30 09:23:21;;;;;;;7.80;3.72;;;;;;;;;;10075646;28;20162;-67
2022/09/30 09:28:27;;;;;;;287.30;256.88;;;;;;;;;;10076758;28;20490;-67
2022/09/30 09:33:28;;;;;;;9.55;5.68;;;;;;;;;;10069989;28;20098;-68
2022/09/30 09:38:34;;;;;;;7.07;4.07;;;;;;;;;;10079790;28;20079;-68
2022/09/30 09:43:42;;;;;;;5.22;3.75;;;;;;;;;;10081406;28;20752;-67
2022/09/30 09:48:41;;;;;;;5.07;3.35;;;;;;;;;;10079919;28;20086;-67
2022/09/30 09:53:45;;;;;;;13.32;4.80;;;;;;;;;;10080120;28;20518;-68
2022/09/30 09:58:59;;;;;;;4.35;3.20;;;;;;;;;;10076188;28;20074;-68
2022/09/30 10:04:09;;;;;;;4.27;3.07;;;;;;;;;;10079979;28;20059;-68
2022/09/30 10:09:12;;;;;;;7.05;3.65;;;;;;;;;;10071070;28;20083;-67
2022/09/30 10:14:16;;;;;;;10.85;3.88;;;;;;;;;;10076737;28;20090;-68
2022/09/30 10:19:14;;;;;;;;;;;;;;;;;;10074353;28;20083;-67
2022/09/30 10:24:25;;;;;;;6.85;2.33;;;;;;;;;;10079766;28;19960;-67
2022/09/30 10:29:27;;;;;;;6.50;3.17;;;;;;;;;;10077937;28;20076;-67
2022/09/30 10:34:27;;;;;;;8.80;2.58;;;;;;;;;;10077362;28;20086;-67
2022/09/30 10:39:29;;;;;;;8.80;3.30;;;;;;;;;;10078016;28;20548;-66
2022/09/30 10:44:27;;;;;;;3.60;2.60;;;;;;;;;;10074619;28;20091;-67
2022/09/30 10:49:27;;;;;;;4.78;3.47;;;;;;;;;;10082620;28;20090;-67
2022/09/30 10:54:43;;;;;;;2.95;2.40;;;;;;;;;;10078090;28;20094;-67
2022/09/30 10:59:44;;;;;;;3.25;2.45;;;;;;;;;;10080992;28;20083;-68
2022/09/30 11:04:46;;;;;;;2.88;2.47;;;;;;;;;;10081397;28;20109;-68
2022/09/30 11:09:48;;;;;;;3.15;2.30;;;;;;;;;;10081800;28;20055;-68
2022/09/30 11:14:51;;;;;;;3.40;2.70;;;;;;;;;;10080095;28;20537;-68
2022/09/30 11:19:52;;;;;;;3.53;2.22;;;;;;;;;;10080963;28;20075;-68
2022/09/30 11:24:52;;;;;;;4.65;2.90;;;;;;;;;;10087743;28;20075;-68
2022/09/30 11:29:56;;;;;;;5.18;2.88;;;;;;;;;;10074691;28;20067;-66
2022/09/30 11:34:59;;;;;;;9.88;2.70;;;;;;;;;;10073386;28;20087;-68
2022/09/30 11:40:04;;;;;;;4.68;2.15;;;;;;;;;;10074515;28;20083;-67
2022/09/30 11:45:09;;;;;;;4.78;2.83;;;;;;;;;;10055695;28;20085;-67
2022/09/30 11:50:21;;;;;;;6.28;2.28;;;;;;;;;;10080754;28;20079;-67
2022/09/30 11:55:32;;;;;;;7.25;2.38;;;;;;;;;;10086563;28;20097;-68
2022/09/30 12:00:33;;;;;;;2.72;2.08;;;;;;;;;;10081932;28;20097;-67
2022/09/30 12:05:35;;;;;;;4.50;2.08;;;;;;;;;;10081346;28;20083;-67
2022/09/30 12:10:34;;;;;;;4.32;2.15;;;;;;;;;;10074109;28;20093;-66
2022/09/30 12:15:35;;;;;;;3.45;1.92;;;;;;;;;;10091058;28;20086;-66
2022/09/30 12:20:38;;;;;;;4.37;2.53;;;;;;;;;;10086451;28;20873;-67
2022/09/30 12:25:39;;;;;;;3.15;2.45;;;;;;;;;;10093386;28;20468;-66
2022/09/30 12:30:39;;;;;;;3.83;2.33;;;;;;;;;;10087314;28;20082;-66
2022/09/30 12:35:46;;;;;;;5.13;2.92;;;;;;;;;;10077853;28;20078;-66
2022/09/30 12:40:51;;;;;;;3.03;2.60;;;;;;;;;;10079757;28;20077;-66
2022/09/30 12:46:13;;;;;;;5.68;2.50;;;;;;;;;;10063222;28;20369;-66
2022/09/30 12:51:23;;;;;;;6.70;2.80;;;;;;;;;;10058171;28;20518;-67
2022/09/30 12:56:26;;;;;;;4.25;2.30;;;;;;;;;;10066994;29;20148;-67
2022/09/30 13:01:25;;;;;;;6.32;2.72;;;;;;;;;;10049750;29;20686;-67
2022/09/30 13:06:26;;;;;;;6.18;2.95;;;;;;;;;;10058506;29;20515;-67
2022/09/30 13:11:36;;;;;;;6.03;3.08;;;;;;;;;;10058337;28;20083;-67
2022/09/30 13:16:53;;;;;;;4.22;1.83;;;;;;;;;;10066492;29;20079;-67
2022/09/30 13:22:13;;;;;;;3.88;2.13;;;;;;;;;;10058200;29;20087;-68
2022/09/30 13:27:14;;;;;;;4.75;2.55;;;;;;;;;;10076210;28;20054;-68
2022/09/30 13:32:29;;;;;;;5.47;2.58;;;;;;;;;;10065845;29;20079;-68
2022/09/30 13:37:37;;;;;;;2.85;1.88;;;;;;;;;;10058277;29;20079;-66
2022/09/30 13:42:43;;;;;;;4.38;2.40;;;;;;;;;;10060115;29;20513;-68
2022/09/30 13:47:44;;;;;;;4.20;2.38;;;;;;;;;;10060211;28;20481;-66
2022/09/30 13:52:45;;;;;;;4.78;2.58;;;;;;;;;;10045683;29;20047;-66
2022/09/30 13:57:48;;;;;;;5.88;2.40;;;;;;;;;;10069023;28;20496;-67
2022/09/30 14:03:11;;;;;;;4.90;3.20;;;;;;;;;;10064213;29;20094;-67
2022/09/30 14:08:40;;;;;;;5.70;2.80;;;;;;;;;;10055161;29;20106;-68
2022/09/30 14:13:46;;;;;;;14.18;7.53;;;;;;;;;;10023976;28;20082;-68
2022/09/30 14:18:52;;;;;;;7.60;1.95;;;;;;;;;;10074763;29;20540;-68
2022/09/30 14:23:56;;;;;;;4.40;2.30;;;;;;;;;;10055341;29;20075;-68
2022/09/30 14:28:58;;;;;;;4.28;2.67;;;;;;;;;;10059536;29;20110;-69
2022/09/30 14:33:57;;;;;;;12.35;3.65;;;;;;;;;;10057443;29;20090;-67
2022/09/30 14:38:58;;;;;;;13.50;5.30;;;;;;;;;;10058159;29;20086;-66
2022/09/30 14:43:59;;;;;;;3.78;3.17;;;;;;;;;;10058993;29;20529;-67
2022/09/30 14:49:00;;;;;;;9.68;3.58;;;;;;;;;;10072614;29;20094;-67
2022/09/30 14:54:00;;;;;;;9.77;3.50;;;;;;;;;;10073683;29;20501;-67
2022/09/30 14:59:00;;;;;;;9.68;2.65;;;;;;;;;;10074211;29;20071;-68
2022/09/30 15:03:59;;;;;;;7.50;2.38;;;;;;;;;;10060819;28;20094;-66
2022/09/30 15:09:02;;;;;;;6.35;1.98;;;;;;;;;;10073198;29;20083;-67
2022/09/30 15:14:04;;;;;;;6.97;2.05;;;;;;;;;;10073473;29;20529;-68
2022/09/30 15:19:02;;;;;;;3.53;1.88;;;;;;;;;;10073227;29;20086;-67
2022/09/30 15:24:01;;;;;;;12.38;2.50;;;;;;;;;;10055681;29;20090;-68
2022/09/30 15:29:00;;;;;;;6.20;2.33;;;;;;;;;;10067442;29;20082;-66
2022/09/30 15:34:03;;;;;;;6.45;2.70;;;;;;;;;;10073441;29;20094;-67
2022/09/30 15:39:02;;;;;;;;;;;;;;;;;;10062383;29;20125;-70
2022/09/30 15:44:02;;;;;;;9.18;3.60;;;;;;;;;;10056808;28;20414;-67
2022/09/30 15:49:01;;;;;;;9.65;2.83;;;;;;;;;;10060046;29;20089;-67
2022/09/30 15:54:02;;;;;;;7.15;2.20;;;;;;;;;;10078797;29;20087;-67
2022/09/30 15:59:01;;;;;;;11.13;2.33;;;;;;;;;;10077982;29;20083;-67
2022/09/30 16:04:00;;;;;;;2.78;1.85;;;;;;;;;;10062426;29;20458;-68
2022/09/30 16:09:00;;;;;;;9.35;4.47;;;;;;;;;;10064785;29;20087;-67
2022/09/30 16:14:01;;;;;;;7.63;3.60;;;;;;;;;;10060573;29;20536;-67
2022/09/30 16:19:01;;;;;;;5.57;2.72;;;;;;;;;;10062807;29;20085;-67
2022/09/30 16:24:00;;;;;;;7.15;3.05;;;;;;;;;;10061842;29;20083;-67
2022/09/30 16:29:02;;;;;;;5.78;3.05;;;;;;;;;;10060396;29;20071;-67
2022/09/30 16:34:11;;;;;;;6.00;3.40;;;;;;;;;;10060166;29;20087;-65
2022/09/30 16:39:12;;;;;;;5.43;2.25;;;;;;;;;;10064190;29;20517;-66
2022/09/30 16:44:12;;;;;;;6.00;2.47;;;;;;;;;;10063469;29;20083;-66
2022/09/30 16:49:12;;;;;;;5.25;3.88;;;;;;;;;;10062377;28;20082;-66
2022/09/30 16:54:11;;;;;;;4.30;2.80;;;;;;;;;;10064199;29;20087;-68
2022/09/30 16:59:13;;;;;;;14.25;4.15;;;;;;;;;;10074811;28;20085;-67
2022/09/30 17:04:11;;;;;;;41.10;23.70;;;;;;;;;;10074904;29;20536;-67
2022/09/30 17:09:14;;;;;;;28.20;15.02;;;;;;;;;;10076275;28;20533;-67
2022/09/30 17:14:15;;;;;;;44.45;27.05;;;;;;;;;;10065871;28;20555;-68
2022/09/30 17:19:14;;;;;;;21.20;16.83;;;;;;;;;;10061456;29;20521;-68
2022/09/30 17:24:12;;;;;;;8.68;6.50;;;;;;;;;;10059895;29;20082;-67
2022/09/30 17:29:11;;;;;;;10.90;6.68;;;;;;;;;;10061427;29;20109;-67
2022/09/30 17:34:30;;;;;;;9.68;5.72;;;;;;;;;;10076002;29;20090;-68
2022/09/30 17:39:29;;;;;;;9.20;8.18;;;;;;;;;;10076014;29;20109;-67
2022/09/30 17:44:29;;;;;;;4.78;3.65;;;;;;;;;;10060671;29;20074;-69
2022/09/30 17:49:33;;;;;;;7.85;4.30;;;;;;;;;;10075769;29;20059;-67
2022/09/30 17:54:33;;;;;;;5.10;3.28;;;;;;;;;;10075922;29;20051;-68
2022/09/30 17:59:31;;;;;;;4.88;3.40;;;;;;;;;;10074684;29;20089;-69
2022/09/30 18:04:29;;;;;;;8.80;3.67;;;;;;;;;;10074475;28;20083;-67
2022/09/30 18:09:29;;;;;;;5.05;4.15;;;;;;;;;;10074460;29;20471;-67
2022/09/30 18:14:34;;;;;;;7.45;2.83;;;;;;;;;;10065912;28;20071;-68
2022/09/30 18:19:33;;;;;;;10.23;3.20;;;;;;;;;;10061815;28;20082;-67
2022/09/30 18:29:49;;;;;;;7.63;3.53;;;;;;;;;;10045307;29;20082;-68
2022/09/30 18:34:47;;;;;;;8.55;3.50;;;;;;;;;;10045887;29;21149;-67
2022/09/30 18:39:47;;;;;;;7.68;3.28;;;;;;;;;;10042256;29;20071;-67
2022/09/30 18:44:45;;;;;;;3.63;3.05;;;;;;;;;;10053243;29;20079;-67
2022/09/30 18:49:43;;;;;;;10.10;3.75;;;;;;;;;;10070999;28;20089;-68
2022/09/30 18:54:42;;;;;;;3.03;2.75;;;;;;;;;;10046276;29;20474;-68
2022/09/30 18:59:41;;;;;;;7.15;3.40;;;;;;;;;;10049051;29;20083;-68
2022/09/30 19:04:49;;;;;;;3.80;2.72;;;;;;;;;;10070863;29;20087;-68
2022/09/30 19:09:48;;;;;;;4.20;3.08;;;;;;;;;;10066260;28;20082;-68
2022/09/30 19:14:48;;;;;;;7.00;2.80;;;;;;;;;;10068688;28;20087;-68
2022/09/30 19:19:50;;;;;;;5.13;2.60;;;;;;;;;;10059630;28;20080;-69
2022/09/30 19:24:48;;;;;;;3.58;2.10;;;;;;;;;;10078807;28;20067;-67
2022/09/30 19:29:48;;;;;;;6.70;2.85;;;;;;;;;;10079401;28;20059;-67
2022/09/30 19:34:47;;;;;;;7.43;2.70;;;;;;;;;;10060773;28;20059;-68
2022/09/30 19:40:04;;;;;;;4.22;3.05;;;;;;;;;;10050741;29;20091;-69
2022/09/30 19:45:23;;;;;;;6.20;3.45;;;;;;;;;;10063021;28;20097;-67
2022/09/30 19:50:26;;;;;;;6.97;2.70;;;;;;;;;;10062767;28;20086;-68
2022/09/30 19:55:25;;;;;;;5.25;2.70;;;;;;;;;;10061008;29;20082;-67
2022/09/30 20:00:25;;;;;;;6.18;2.72;;;;;;;;;;10057618;29;20084;-68
2022/09/30 20:05:24;;;;;;;5.85;2.80;;;;;;;;;;10047425;28;20098;-68
2022/09/30 20:10:22;;;;;;;5.00;3.20;;;;;;;;;;10052448;29;20668;-68
2022/09/30 20:20:45;;;;;;;16.35;10.82;;;;;;;;;;10041310;29;20541;-68
2022/09/30 20:25:44;;;;;;;9.48;7.07;;;;;;;;;;10041478;29;20091;-68
2022/09/30 20:30:45;;;;;;;6.68;3.70;;;;;;;;;;10040308;29;20059;-67
2022/09/30 20:35:45;;;;;;;5.88;3.15;;;;;;;;;;10039510;29;20106;-69
2022/09/30 20:40:44;;;;;;;6.22;2.53;;;;;;;;;;10040425;29;20138;-68
2022/09/30 20:45:42;;;;;;;3.13;2.17;;;;;;;;;;10023789;29;20047;-68
2022/09/30 20:50:44;;;;;;;12.15;3.30;;;;;;;;;;10061102;28;20079;-69
2022/09/30 20:55:44;;;;;;;7.45;2.55;;;;;;;;;;10079907;29;20086;-67
2022/09/30 21:00:42;;;;;;;8.30;2.20;;;;;;;;;;10078208;29;20055;-69
2022/09/30 21:05:41;;;;;;;3.67;2.38;;;;;;;;;;10077018;29;20512;-68
2022/09/30 21:10:42;;;;;;;2.97;2.30;;;;;;;;;;10079207;29;20047;-69
2022/09/30 21:15:44;;;;;;;4.93;2.40;;;;;;;;;;10077634;28;20058;-67
2022/09/30 21:20:42;;;;;;;6.63;2.50;;;;;;;;;;10061446;28;20095;-68
2022/09/30 21:25:41;;;;;;;7.38;3.40;;;;;;;;;;10054443;28;20468;-68
2022/09/30 21:30:41;;;;;;;5.30;3.15;;;;;;;;;;10058835;29;20078;-68
2022/09/30 21:35:41;;;;;;;2.97;2.38;;;;;;;;;;10057624;28;20059;-68
2022/09/30 21:40:40;;;;;;;2.97;2.42;;;;;;;;;;10075626;28;20512;-68
2022/09/30 21:45:38;;;;;;;5.75;2.55;;;;;;;;;;10076551;28;20055;-69
2022/09/30 21:50:37;;;;;;;7.80;2.90;;;;;;;;;;10078180;28;20772;-68
2022/09/30 21:55:39;;;;;;;7.55;2.25;;;;;;;;;;10077440;28;20073;-68
2022/09/30 22:00:38;;;;;;;5.80;2.40;;;;;;;;;;10077336;29;20083;-67
2022/09/30 22:05:36;;;;;;;6.80;3.13;;;;;;;;;;10077479;28;20548;-68
2022/09/30 22:10:34;;;;;;;7.75;2.47;;;;;;;;;;10077048;29;20047;-69
2022/09/30 22:15:38;;;;;;;7.55;2.15;;;;;;;;;;10091737;28;20057;-68
2022/09/30 22:20:40;;;;;;;5.75;2.05;;;;;;;;;;10076910;29;20087;-68
2022/09/30 22:25:39;;;;;;;4.82;2.55;;;;;;;;;;10076032;28;20088;-68
2022/09/30 22:30:40;;;;;;;5.68;2.08;;;;;;;;;;10077070;28;20051;-68
2022/09/30 22:40:54;;;;;;;5.25;2.10;;;;;;;;;;10075820;29;20098;-68
2022/09/30 22:46:02;;;;;;;2.55;2.30;;;;;;;;;;10075424;28;20056;-68
2022/09/30 22:51:00;;;;;;;3.33;1.80;;;;;;;;;;10076201;28;20089;-68
2022/09/30 22:56:03;;;;;;;5.45;2.30;;;;;;;;;;10075383;29;20090;-68
2022/09/30 23:01:04;;;;;;;2.47;2.08;;;;;;;;;;10096293;28;20059;-68
2022/09/30 23:06:04;;;;;;;4.82;2.53;;;;;;;;;;10083431;29;20055;-68
2022/09/30 23:11:02;;;;;;;3.67;1.95;;;;;;;;;;10083480;28;20525;-68
2022/09/30 23:16:00;;;;;;;4.90;2.13;;;;;;;;;;10083132;28;20051;-68
2022/09/30 23:21:01;;;;;;;7.93;2.63;;;;;;;;;;10083057;29;20086;-68
2022/09/30 23:26:01;;;;;;;7.63;2.03;;;;;;;;;;10083149;28;20058;-69
2022/09/30 23:31:00;;;;;;;5.22;2.50;;;;;;;;;;10081202;29;20082;-68
2022/09/30 23:36:00;;;;;;;2.33;1.88;;;;;;;;;;10079328;28;20082;-68
2022/09/30 23:40:58;;;;;;;4.90;2.10;;;;;;;;;;10079644;28;20083;-68
2022/09/30 23:45:57;;;;;;;4.28;2.40;;;;;;;;;;10080902;29;20539;-68
2022/09/30 23:50:55;;;;;;;3.15;1.95;;;;;;;;;;10079837;28;20055;-68
2022/09/30 23:55:55;;;;;;;3.03;1.67;;;;;;;;;;10077375;29;20087;-68
